createdAt,value
2022-12-02T00:00:00.025Z,90.06
2022-12-02T00:01:00.032Z,89.86
2022-12-02T00:02:00.011Z,90.06
2022-12-02T00:03:00.124Z,90.17
2022-12-02T00:04:00.100Z,90.17
2022-12-02T00:04:59.945Z,90.17
2022-12-02T00:05:59.932Z,90.17
2022-12-02T00:06:59.922Z,90.17
2022-12-02T00:07:59.957Z,90.27
2022-12-02T00:08:59.891Z,90.06
2022-12-02T00:09:59.881Z,90.20
2022-12-02T00:10:59.870Z,90.58
2022-12-02T00:11:59.861Z,90.58
2022-12-02T00:12:59.835Z,90.48
2022-12-02T00:13:59.831Z,90.37
2022-12-02T00:14:59.817Z,90.48
2022-12-02T00:15:59.909Z,90.69
2022-12-02T00:16:59.786Z,91.00
2022-12-02T00:17:59.797Z,91.20
2022-12-02T00:18:59.761Z,91.10
2022-12-02T00:19:59.749Z,91.31
2022-12-02T00:20:59.737Z,91.10
2022-12-02T00:21:59.716Z,91.10
2022-12-02T00:22:59.703Z,91.10
2022-12-02T00:23:59.691Z,91.10
2022-12-02T00:24:59.675Z,90.89
2022-12-02T00:25:59.663Z,91.00
2022-12-02T00:26:59.644Z,91.10
2022-12-02T00:27:59.639Z,91.20
2022-12-02T00:28:59.625Z,90.79
2022-12-02T00:29:59.606Z,90.79
2022-12-02T00:30:59.592Z,90.69
2022-12-02T00:31:59.660Z,90.89
2022-12-02T00:32:59.572Z,91.10
2022-12-02T00:33:59.581Z,91.00
2022-12-02T00:34:59.546Z,91.03
2022-12-02T00:35:59.531Z,90.89
2022-12-02T00:36:59.518Z,90.89
2022-12-02T00:37:59.509Z,90.79
2022-12-02T00:38:59.489Z,90.89
2022-12-02T00:39:59.480Z,90.69
2022-12-02T00:40:59.464Z,90.48
2022-12-02T00:41:59.448Z,90.37
2022-12-02T00:42:59.432Z,90.48
2022-12-02T00:43:59.417Z,90.37
2022-12-02T00:44:59.410Z,90.27
2022-12-02T00:45:59.551Z,90.27
2022-12-02T00:46:59.385Z,90.06
2022-12-02T00:47:59.370Z,90.27
2022-12-02T00:48:59.350Z,90.17
2022-12-02T00:49:59.366Z,90.27
2022-12-02T00:50:59.329Z,90.37
2022-12-02T00:51:59.312Z,90.17
2022-12-02T00:52:59.295Z,90.17
2022-12-02T00:53:59.278Z,90.06
2022-12-02T00:54:59.267Z,90.06
2022-12-02T00:55:59.254Z,90.17
2022-12-02T00:56:59.245Z,89.96
2022-12-02T00:57:59.227Z,90.17
2022-12-02T00:58:59.213Z,90.17
2022-12-02T00:59:59.201Z,90.17
2022-12-02T01:00:59.263Z,90.27
2022-12-02T01:01:59.253Z,90.58
2022-12-02T01:02:59.164Z,90.58
2022-12-02T01:03:59.144Z,90.69
2022-12-02T01:04:59.135Z,90.64
2022-12-02T01:05:59.141Z,90.58
2022-12-02T01:06:59.112Z,90.58
2022-12-02T01:07:59.500Z,90.48
2022-12-02T01:08:59.083Z,90.48
2022-12-02T01:09:59.063Z,90.69
2022-12-02T01:10:59.052Z,90.58
2022-12-02T01:11:59.041Z,90.69
2022-12-02T01:12:59.025Z,90.69
2022-12-02T01:13:59.014Z,90.48
2022-12-02T01:14:58.999Z,90.23
2022-12-02T01:15:59.016Z,90.48
2022-12-02T01:16:59.040Z,90.37
2022-12-02T01:17:58.956Z,90.37
2022-12-02T01:18:58.941Z,90.69
2022-12-02T01:19:58.929Z,90.89
2022-12-02T01:20:58.919Z,91.10
2022-12-02T01:21:58.931Z,90.95
2022-12-02T01:22:58.896Z,90.79
2022-12-02T01:23:58.883Z,90.79
2022-12-02T01:24:58.863Z,90.58
2022-12-02T01:25:58.853Z,90.54
2022-12-02T01:26:58.845Z,91.00
2022-12-02T01:27:58.827Z,90.79
2022-12-02T01:28:58.810Z,90.79
2022-12-02T01:29:58.804Z,90.69
2022-12-02T01:30:58.784Z,90.69
2022-12-02T01:31:58.975Z,91.20
2022-12-02T01:32:58.763Z,91.00
2022-12-02T01:33:58.744Z,91.10
2022-12-02T01:34:58.727Z,91.31
2022-12-02T01:35:58.719Z,91.31
2022-12-02T01:36:58.708Z,91.41
2022-12-02T01:37:58.717Z,91.62
2022-12-02T01:38:58.675Z,91.10
2022-12-02T01:39:58.666Z,91.00
2022-12-02T01:40:58.654Z,91.31
2022-12-02T01:41:58.647Z,91.31
2022-12-02T01:42:58.628Z,91.52
2022-12-02T01:43:58.613Z,91.52
2022-12-02T01:44:58.609Z,91.72
2022-12-02T01:45:58.685Z,91.62
2022-12-02T01:46:58.588Z,91.52
2022-12-02T01:47:58.563Z,91.41
2022-12-02T01:48:58.555Z,91.31
2022-12-02T01:49:58.535Z,91.41
2022-12-02T01:50:58.516Z,91.41
2022-12-02T01:51:58.512Z,91.52
2022-12-02T01:52:58.878Z,91.83
2022-12-02T01:53:58.501Z,91.62
2022-12-02T01:54:58.465Z,91.62
2022-12-02T01:55:58.453Z,91.31
2022-12-02T01:56:58.437Z,91.41
2022-12-02T01:57:58.443Z,91.31
2022-12-02T01:58:58.416Z,91.00
2022-12-02T01:59:58.405Z,91.10
2022-12-02T02:00:58.464Z,91.10
2022-12-02T02:01:58.428Z,91.20
2022-12-02T02:02:58.362Z,91.31
2022-12-02T02:03:58.348Z,91.00
2022-12-02T02:04:58.337Z,91.00
2022-12-02T02:05:58.317Z,90.79
2022-12-02T02:06:58.308Z,90.89
2022-12-02T02:07:58.393Z,90.89
2022-12-02T02:08:58.280Z,91.10
2022-12-02T02:09:58.300Z,91.00
2022-12-02T02:10:58.271Z,91.00
2022-12-02T02:11:58.257Z,91.10
2022-12-02T02:12:58.579Z,91.10
2022-12-02T02:13:58.217Z,91.00
2022-12-02T02:14:58.205Z,91.31
2022-12-02T02:15:58.186Z,90.89
2022-12-02T02:16:58.253Z,91.00
2022-12-02T02:18:03.417Z,90.79
2022-12-02T02:18:59.183Z,90.69
2022-12-02T02:19:58.135Z,90.79
2022-12-02T02:20:58.120Z,90.69
2022-12-02T02:21:58.110Z,90.89
2022-12-02T02:22:58.099Z,91.10
2022-12-02T02:23:58.084Z,91.20
2022-12-02T02:24:58.068Z,91.41
2022-12-02T02:25:58.077Z,91.72
2022-12-02T02:26:58.040Z,91.31
2022-12-02T02:27:58.035Z,90.89
2022-12-02T02:28:58.014Z,90.79
2022-12-02T02:29:58.003Z,91.00
2022-12-02T02:30:58.073Z,91.10
2022-12-02T02:31:57.972Z,91.00
2022-12-02T02:32:57.961Z,91.00
2022-12-02T02:33:57.948Z,91.10
2022-12-02T02:34:57.931Z,91.10
2022-12-02T02:35:57.925Z,91.00
2022-12-02T02:36:57.906Z,90.79
2022-12-02T02:37:57.896Z,90.89
2022-12-02T02:38:57.879Z,91.00
2022-12-02T02:39:57.971Z,91.20
2022-12-02T02:40:57.858Z,91.41
2022-12-02T02:41:57.860Z,91.41
2022-12-02T02:42:57.825Z,91.20
2022-12-02T02:43:57.815Z,91.41
2022-12-02T02:44:57.802Z,91.41
2022-12-02T02:45:57.930Z,91.10
2022-12-02T02:46:57.778Z,91.10
2022-12-02T02:47:57.762Z,91.10
2022-12-02T02:48:57.756Z,91.10
2022-12-02T02:49:57.736Z,90.79
2022-12-02T02:50:57.723Z,91.00
2022-12-02T02:51:57.714Z,91.10
2022-12-02T02:52:57.699Z,91.00
2022-12-02T02:53:57.684Z,90.58
2022-12-02T02:54:57.665Z,90.37
2022-12-02T02:55:57.693Z,90.69
2022-12-02T02:56:57.644Z,90.48
2022-12-02T02:57:57.652Z,90.48
2022-12-02T02:58:57.610Z,90.37
2022-12-02T02:59:57.606Z,90.48
2022-12-02T03:00:57.612Z,90.69
2022-12-02T03:01:57.617Z,90.58
2022-12-02T03:02:57.616Z,90.48
2022-12-02T03:03:57.553Z,90.58
2022-12-02T03:04:57.541Z,90.89
2022-12-02T03:05:57.530Z,90.89
2022-12-02T03:06:57.515Z,90.89
2022-12-02T03:07:57.575Z,90.85
2022-12-02T03:08:57.486Z,90.69
2022-12-02T03:09:57.475Z,90.48
2022-12-02T03:10:57.458Z,90.37
2022-12-02T03:11:57.445Z,90.06
2022-12-02T03:12:57.427Z,90.06
2022-12-02T03:13:57.486Z,90.17
2022-12-02T03:14:57.406Z,90.06
2022-12-02T03:15:57.394Z,90.17
2022-12-02T03:16:57.459Z,89.96
2022-12-02T03:17:57.366Z,89.86
2022-12-02T03:18:57.352Z,89.86
2022-12-02T03:19:57.336Z,90.17
2022-12-02T03:20:57.323Z,90.20
2022-12-02T03:21:57.316Z,90.17
2022-12-02T03:22:57.296Z,89.96
2022-12-02T03:23:57.284Z,89.86
2022-12-02T03:24:57.269Z,89.75
2022-12-02T03:25:57.263Z,89.44
2022-12-02T03:26:57.245Z,89.48
2022-12-02T03:27:57.238Z,89.58
2022-12-02T03:28:57.223Z,89.58
2022-12-02T03:29:57.226Z,89.34
2022-12-02T03:30:57.313Z,89.13
2022-12-02T03:31:57.179Z,89.06
2022-12-02T03:32:57.186Z,89.06
2022-12-02T03:33:57.151Z,88.92
2022-12-02T03:34:57.140Z,88.82
2022-12-02T03:35:57.123Z,88.92
2022-12-02T03:36:57.114Z,88.71
2022-12-02T03:37:57.103Z,88.82
2022-12-02T03:38:57.092Z,88.82
2022-12-02T03:39:57.069Z,88.61
2022-12-02T03:40:57.054Z,88.61
2022-12-02T03:41:57.053Z,88.61
2022-12-02T03:42:57.033Z,88.51
2022-12-02T03:43:57.027Z,88.54
2022-12-02T03:44:57.006Z,88.54
2022-12-02T03:45:57.060Z,88.34
2022-12-02T03:46:56.985Z,88.20
2022-12-02T03:47:56.970Z,88.30
2022-12-02T03:48:56.954Z,88.34
2022-12-02T03:49:56.938Z,88.34
2022-12-02T03:50:56.923Z,88.34
2022-12-02T03:51:56.911Z,88.23
2022-12-02T03:52:56.899Z,88.20
2022-12-02T03:53:56.880Z,88.13
2022-12-02T03:54:57.348Z,88.09
2022-12-02T03:55:56.857Z,87.99
2022-12-02T03:56:56.844Z,87.92
2022-12-02T03:57:56.834Z,88.02
2022-12-02T03:58:56.825Z,87.92
2022-12-02T03:59:56.805Z,87.82
2022-12-02T04:00:56.797Z,87.68
2022-12-02T04:01:56.812Z,87.82
2022-12-02T04:02:56.870Z,87.71
2022-12-02T04:03:56.756Z,87.82
2022-12-02T04:04:56.742Z,87.82
2022-12-02T04:05:56.723Z,87.82
2022-12-02T04:06:56.713Z,87.78
2022-12-02T04:07:56.742Z,87.71
2022-12-02T04:08:56.684Z,87.57
2022-12-02T04:09:56.666Z,87.51
2022-12-02T04:10:56.656Z,87.47
2022-12-02T04:11:56.637Z,87.61
2022-12-02T04:12:56.631Z,87.51
2022-12-02T04:13:56.621Z,87.61
2022-12-02T04:14:56.607Z,87.61
2022-12-02T04:15:56.683Z,87.61
2022-12-02T04:16:56.580Z,87.57
2022-12-02T04:17:56.586Z,87.61
2022-12-02T04:18:56.552Z,87.61
2022-12-02T04:19:56.541Z,87.40
2022-12-02T04:20:56.519Z,87.51
2022-12-02T04:21:56.514Z,87.40
2022-12-02T04:22:56.498Z,87.40
2022-12-02T04:23:56.481Z,87.40
2022-12-02T04:24:56.465Z,87.30
2022-12-02T04:25:56.456Z,87.19
2022-12-02T04:26:56.450Z,87.30
2022-12-02T04:27:56.445Z,87.19
2022-12-02T04:28:56.417Z,87.16
2022-12-02T04:29:56.396Z,87.30
2022-12-02T04:30:56.424Z,87.30
2022-12-02T04:31:56.366Z,87.19
2022-12-02T04:32:56.361Z,87.19
2022-12-02T04:33:56.364Z,87.19
2022-12-02T04:34:56.327Z,87.19
2022-12-02T04:35:56.318Z,87.19
2022-12-02T04:36:56.304Z,87.19
2022-12-02T04:37:56.293Z,87.09
2022-12-02T04:38:56.282Z,87.09
2022-12-02T04:39:56.271Z,87.09
2022-12-02T04:40:56.258Z,87.09
2022-12-02T04:41:56.238Z,87.09
2022-12-02T04:42:56.229Z,87.09
2022-12-02T04:43:56.211Z,87.09
2022-12-02T04:44:56.198Z,87.09
2022-12-02T04:45:56.178Z,87.09
2022-12-02T04:46:56.229Z,87.24
2022-12-02T04:47:56.154Z,87.19
2022-12-02T04:48:56.143Z,87.24
2022-12-02T04:49:56.152Z,87.19
2022-12-02T04:50:56.121Z,87.19
2022-12-02T04:51:56.100Z,87.09
2022-12-02T04:52:56.105Z,87.24
2022-12-02T04:53:56.075Z,87.09
2022-12-02T04:54:56.076Z,86.99
2022-12-02T04:55:56.050Z,86.99
2022-12-02T04:56:56.032Z,86.88
2022-12-02T04:57:56.015Z,86.88
2022-12-02T04:58:56.004Z,86.99
2022-12-02T04:59:55.994Z,86.99
2022-12-02T05:00:55.980Z,86.99
2022-12-02T05:01:55.968Z,86.99
2022-12-02T05:02:56.001Z,86.99
2022-12-02T05:03:55.993Z,86.99
2022-12-02T05:04:56.329Z,86.99
2022-12-02T05:05:55.931Z,86.99
2022-12-02T05:06:55.911Z,86.99
2022-12-02T05:07:55.931Z,86.99
2022-12-02T05:08:55.876Z,86.88
2022-12-02T05:09:55.858Z,86.88
2022-12-02T05:10:55.846Z,86.99
2022-12-02T05:11:55.827Z,86.99
2022-12-02T05:12:55.813Z,86.88
2022-12-02T05:13:55.802Z,86.78
2022-12-02T05:14:55.789Z,86.78
2022-12-02T05:15:55.840Z,86.88
2022-12-02T05:16:55.760Z,86.88
2022-12-02T05:17:55.757Z,86.88
2022-12-02T05:18:55.941Z,86.78
2022-12-02T05:19:55.724Z,86.78
2022-12-02T05:20:55.710Z,86.88
2022-12-02T05:21:55.713Z,86.88
2022-12-02T05:22:55.687Z,86.88
2022-12-02T05:23:55.672Z,86.88
2022-12-02T05:24:55.651Z,86.88
2022-12-02T05:25:55.647Z,86.88
2022-12-02T05:26:55.632Z,86.88
2022-12-02T05:27:55.623Z,87.09
2022-12-02T05:28:55.603Z,87.09
2022-12-02T05:29:55.594Z,87.19
2022-12-02T05:30:55.660Z,87.30
2022-12-02T05:31:55.650Z,87.30
2022-12-02T05:32:55.550Z,87.30
2022-12-02T05:33:55.541Z,87.19
2022-12-02T05:34:55.521Z,87.30
2022-12-02T05:35:55.505Z,87.40
2022-12-02T05:36:55.497Z,87.51
2022-12-02T05:37:58.012Z,87.51
2022-12-02T05:38:56.503Z,87.51
2022-12-02T05:39:55.450Z,87.51
2022-12-02T05:40:55.439Z,87.51
2022-12-02T05:41:55.430Z,87.40
2022-12-02T05:42:55.421Z,87.40
2022-12-02T05:43:55.405Z,87.40
2022-12-02T05:44:55.653Z,87.30
2022-12-02T05:45:55.373Z,87.30
2022-12-02T05:46:55.415Z,87.30
2022-12-02T05:47:55.349Z,87.30
2022-12-02T05:48:55.340Z,87.30
2022-12-02T05:49:55.320Z,87.30
2022-12-02T05:50:55.305Z,87.30
2022-12-02T05:51:56.870Z,87.30
2022-12-02T05:52:55.280Z,87.40
2022-12-02T05:53:55.291Z,87.51
2022-12-02T05:54:55.255Z,87.40
2022-12-02T05:55:55.239Z,87.51
2022-12-02T05:56:55.226Z,87.40
2022-12-02T05:57:55.214Z,87.30
2022-12-02T05:58:55.196Z,87.40
2022-12-02T05:59:55.180Z,87.30
2022-12-02T06:00:55.180Z,87.30
2022-12-02T06:01:55.286Z,87.40
2022-12-02T06:02:55.298Z,87.51
2022-12-02T06:03:55.137Z,87.40
2022-12-02T06:04:55.116Z,87.40
2022-12-02T06:05:55.106Z,87.30
2022-12-02T06:06:55.092Z,87.30
2022-12-02T06:07:55.191Z,87.24
2022-12-02T06:08:55.072Z,87.34
2022-12-02T06:09:55.071Z,87.19
2022-12-02T06:10:55.039Z,87.30
2022-12-02T06:11:55.021Z,87.09
2022-12-02T06:12:55.015Z,87.09
2022-12-02T06:13:54.995Z,87.19
2022-12-02T06:14:54.980Z,87.09
2022-12-02T06:15:54.968Z,87.09
2022-12-02T06:16:55.083Z,87.09
2022-12-02T06:17:54.947Z,87.09
2022-12-02T06:18:54.932Z,87.09
2022-12-02T06:19:54.920Z,87.09
2022-12-02T06:20:54.905Z,87.09
2022-12-02T06:21:54.890Z,87.09
2022-12-02T06:22:54.880Z,87.09
2022-12-02T06:23:54.867Z,87.09
2022-12-02T06:24:54.851Z,87.09
2022-12-02T06:25:54.862Z,86.99
2022-12-02T06:26:54.831Z,86.99
2022-12-02T06:27:54.815Z,86.99
2022-12-02T06:28:54.800Z,86.99
2022-12-02T06:29:54.787Z,86.99
2022-12-02T06:30:54.771Z,87.03
2022-12-02T06:31:54.853Z,86.88
2022-12-02T06:32:54.741Z,86.99
2022-12-02T06:33:54.726Z,86.99
2022-12-02T06:34:54.905Z,86.99
2022-12-02T06:35:54.706Z,86.99
2022-12-02T06:36:54.691Z,86.93
2022-12-02T06:37:54.673Z,86.99
2022-12-02T06:38:54.661Z,86.88
2022-12-02T06:40:26.298Z,86.93
2022-12-02T06:40:55.666Z,87.03
2022-12-02T06:41:54.648Z,86.99
2022-12-02T06:42:54.610Z,86.88
2022-12-02T06:43:54.599Z,86.88
2022-12-02T06:44:54.584Z,86.88
2022-12-02T06:45:54.679Z,86.99
2022-12-02T06:46:54.559Z,86.99
2022-12-02T06:47:54.578Z,86.99
2022-12-02T06:48:54.524Z,86.99
2022-12-02T06:49:54.510Z,87.03
2022-12-02T06:50:54.500Z,86.99
2022-12-02T06:51:54.488Z,86.93
2022-12-02T06:52:54.474Z,86.99
2022-12-02T06:53:54.458Z,87.09
2022-12-02T06:54:54.443Z,87.09
2022-12-02T06:55:54.428Z,87.13
2022-12-02T06:56:54.424Z,87.13
2022-12-02T06:57:54.425Z,87.24
2022-12-02T06:58:54.387Z,87.24
2022-12-02T06:59:54.378Z,87.34
2022-12-02T07:00:54.459Z,87.19
2022-12-02T07:01:54.441Z,87.19
2022-12-02T07:02:54.396Z,87.24
2022-12-02T07:03:54.318Z,87.19
2022-12-02T07:04:54.576Z,87.19
2022-12-02T07:05:54.295Z,87.09
2022-12-02T07:06:54.290Z,87.13
2022-12-02T07:07:54.369Z,87.30
2022-12-02T07:08:54.253Z,87.19
2022-12-02T07:09:54.243Z,87.34
2022-12-02T07:10:54.230Z,87.40
2022-12-02T07:11:54.216Z,87.40
2022-12-02T07:12:54.197Z,87.40
2022-12-02T07:13:54.206Z,87.55
2022-12-02T07:14:54.581Z,87.51
2022-12-02T07:15:54.157Z,87.51
2022-12-02T07:16:54.195Z,87.40
2022-12-02T07:17:54.130Z,87.45
2022-12-02T07:18:54.118Z,87.40
2022-12-02T07:19:54.100Z,87.40
2022-12-02T07:20:54.092Z,87.40
2022-12-02T07:21:54.144Z,87.40
2022-12-02T07:22:54.073Z,87.40
2022-12-02T07:23:54.053Z,87.40
2022-12-02T07:24:54.196Z,87.40
2022-12-02T07:25:54.033Z,87.40
2022-12-02T07:26:54.012Z,87.40
2022-12-02T07:27:53.999Z,87.51
2022-12-02T07:28:59.207Z,87.61
2022-12-02T07:29:55.035Z,87.61
2022-12-02T07:30:54.062Z,87.61
2022-12-02T07:31:53.968Z,87.61
2022-12-02T07:32:53.932Z,87.71
2022-12-02T07:33:53.921Z,87.61
2022-12-02T07:34:54.207Z,87.71
2022-12-02T07:35:53.895Z,87.71
2022-12-02T07:36:53.873Z,87.71
2022-12-02T07:37:53.861Z,87.71
2022-12-02T07:39:09.208Z,87.71
2022-12-02T07:39:54.858Z,87.61
2022-12-02T07:40:53.829Z,87.61
2022-12-02T07:41:53.805Z,87.71
2022-12-02T07:42:53.793Z,87.61
2022-12-02T07:43:53.783Z,87.40
2022-12-02T07:44:54.061Z,87.40
2022-12-02T07:45:53.835Z,87.51
2022-12-02T07:46:53.749Z,87.61
2022-12-02T07:47:53.728Z,87.71
2022-12-02T07:48:57.141Z,87.71
2022-12-02T07:49:53.710Z,87.71
2022-12-02T07:50:53.697Z,87.71
2022-12-02T07:51:53.686Z,87.61
2022-12-02T07:52:53.661Z,87.61
2022-12-02T07:53:53.651Z,87.61
2022-12-02T07:54:53.817Z,87.68
2022-12-02T07:55:53.621Z,87.68
2022-12-02T07:56:53.611Z,87.78
2022-12-02T07:57:53.596Z,87.78
2022-12-02T07:59:53.564Z,87.68
2022-12-02T08:00:53.578Z,87.68
2022-12-02T08:01:53.697Z,87.71
2022-12-02T08:02:53.522Z,87.78
2022-12-02T08:03:53.516Z,87.68
2022-12-02T08:04:53.966Z,87.68
2022-12-02T08:05:53.490Z,87.71
2022-12-02T08:06:53.477Z,87.68
2022-12-02T08:07:53.577Z,87.92
2022-12-02T08:08:53.449Z,88.09
2022-12-02T08:09:53.432Z,87.99
2022-12-02T08:10:53.423Z,87.99
2022-12-02T08:11:53.411Z,87.99
2022-12-02T08:12:53.396Z,88.13
2022-12-02T08:13:53.380Z,88.20
2022-12-02T08:14:53.737Z,88.20
2022-12-02T08:15:54.294Z,88.09
2022-12-02T08:16:53.389Z,87.99
2022-12-02T08:17:53.350Z,87.99
2022-12-02T08:18:53.308Z,87.88
2022-12-02T08:19:53.299Z,87.68
2022-12-02T08:20:53.383Z,87.74
2022-12-02T08:21:53.279Z,87.78
2022-12-02T08:22:53.264Z,87.68
2022-12-02T08:23:53.340Z,87.78
2022-12-02T08:24:53.540Z,87.78
2022-12-02T08:25:53.227Z,87.84
2022-12-02T08:26:53.205Z,87.74
2022-12-02T08:27:53.195Z,87.95
2022-12-02T08:28:54.325Z,88.26
2022-12-02T08:29:53.162Z,88.46
2022-12-02T08:30:53.209Z,88.57
2022-12-02T08:31:53.145Z,88.61
2022-12-02T08:32:53.130Z,88.57
2022-12-02T08:33:53.153Z,88.46
2022-12-02T08:34:53.379Z,88.36
2022-12-02T08:35:53.090Z,88.46
2022-12-02T08:36:53.077Z,88.57
2022-12-02T08:37:53.058Z,88.57
2022-12-02T08:38:53.049Z,88.46
2022-12-02T08:39:53.035Z,88.57
2022-12-02T08:40:53.020Z,88.78
2022-12-02T08:41:53.005Z,88.67
2022-12-02T08:42:52.989Z,88.67
2022-12-02T08:43:52.982Z,88.78
2022-12-02T08:44:53.230Z,89.09
2022-12-02T08:45:53.032Z,88.98
2022-12-02T08:46:54.712Z,88.98
2022-12-02T08:47:52.932Z,88.88
2022-12-02T08:48:52.918Z,88.67
2022-12-02T08:49:52.942Z,88.88
2022-12-02T08:50:52.890Z,88.78
2022-12-02T08:51:52.877Z,88.63
2022-12-02T08:52:58.086Z,88.78
2022-12-02T08:53:52.874Z,88.88
2022-12-02T08:54:53.057Z,88.78
2022-12-02T08:55:52.822Z,88.63
2022-12-02T08:56:52.833Z,88.73
2022-12-02T08:57:52.822Z,88.84
2022-12-02T08:58:52.785Z,89.09
2022-12-02T08:59:52.782Z,89.46
2022-12-02T09:00:52.761Z,89.71
2022-12-02T09:01:52.859Z,89.71
2022-12-02T09:02:52.795Z,89.46
2022-12-02T09:03:52.723Z,89.56
2022-12-02T09:04:53.013Z,89.61
2022-12-02T09:05:52.711Z,89.56
2022-12-02T09:06:52.684Z,89.50
2022-12-02T09:07:52.741Z,89.67
2022-12-02T09:08:52.737Z,90.33
2022-12-02T09:09:52.641Z,89.81
2022-12-02T09:10:52.719Z,89.98
2022-12-02T09:11:52.619Z,89.87
2022-12-02T09:12:52.600Z,89.77
2022-12-02T09:13:52.585Z,89.98
2022-12-02T09:14:52.871Z,90.39
2022-12-02T09:15:52.635Z,89.87
2022-12-02T09:16:52.550Z,89.87
2022-12-02T09:17:52.530Z,90.08
2022-12-02T09:18:52.521Z,90.19
2022-12-02T09:19:52.513Z,89.83
2022-12-02T09:20:52.493Z,90.29
2022-12-02T09:21:52.495Z,90.35
2022-12-02T09:22:52.467Z,91.22
2022-12-02T09:23:52.447Z,91.39
2022-12-02T09:24:52.960Z,91.39
2022-12-02T09:25:52.426Z,91.28
2022-12-02T09:26:52.420Z,91.33
2022-12-02T09:27:52.401Z,91.18
2022-12-02T09:28:52.383Z,90.97
2022-12-02T09:29:52.378Z,91.70
2022-12-02T09:30:52.440Z,92.32
2022-12-02T09:31:52.350Z,92.53
2022-12-02T09:32:52.389Z,92.47
2022-12-02T09:33:52.317Z,92.32
2022-12-02T09:34:52.669Z,92.01
2022-12-02T09:35:52.296Z,92.26
2022-12-02T09:36:52.275Z,92.32
2022-12-02T09:37:52.284Z,92.22
2022-12-02T09:38:52.249Z,92.11
2022-12-02T09:39:52.259Z,92.74
2022-12-02T09:40:52.220Z,92.63
2022-12-02T09:41:52.205Z,93.08
2022-12-02T09:42:52.191Z,92.32
2022-12-02T09:43:52.182Z,92.74
2022-12-02T09:44:52.461Z,92.74
2022-12-02T09:45:52.151Z,92.74
2022-12-02T09:46:52.267Z,92.74
2022-12-02T09:47:52.150Z,92.01
2022-12-02T09:48:52.110Z,92.53
2022-12-02T09:49:52.153Z,92.94
2022-12-02T09:50:52.086Z,93.77
2022-12-02T09:51:52.077Z,93.87
2022-12-02T09:52:52.065Z,92.94
2022-12-02T09:53:52.067Z,93.15
2022-12-02T09:54:52.188Z,93.21
2022-12-02T09:55:52.018Z,92.94
2022-12-02T09:56:52.009Z,92.07
2022-12-02T09:57:51.986Z,92.11
2022-12-02T09:58:51.978Z,92.90
2022-12-02T09:59:51.970Z,94.45
2022-12-02T10:00:51.955Z,93.56
2022-12-02T10:01:51.981Z,94.14
2022-12-02T10:02:52.092Z,94.35
2022-12-02T10:03:51.904Z,94.56
2022-12-02T10:04:52.126Z,94.97
2022-12-02T10:05:51.883Z,94.87
2022-12-02T10:06:52.100Z,95.28
2022-12-02T10:07:51.893Z,94.81
2022-12-02T10:08:51.842Z,94.49
2022-12-02T10:09:51.845Z,94.76
2022-12-02T10:10:51.808Z,95.12
2022-12-02T10:11:51.791Z,95.53
2022-12-02T10:12:51.786Z,94.24
2022-12-02T10:13:51.769Z,94.70
2022-12-02T10:14:52.124Z,93.46
2022-12-02T10:15:51.795Z,93.52
2022-12-02T10:16:51.930Z,93.41
2022-12-02T10:17:51.727Z,94.14
2022-12-02T10:18:51.703Z,93.73
2022-12-02T10:19:51.690Z,93.87
2022-12-02T10:20:51.671Z,95.22
2022-12-02T10:21:55.426Z,95.01
2022-12-02T10:22:51.676Z,95.01
2022-12-02T10:23:51.635Z,95.74
2022-12-02T10:24:52.006Z,95.84
2022-12-02T10:25:51.623Z,95.95
2022-12-02T10:26:51.588Z,96.21
2022-12-02T10:27:51.574Z,96.36
2022-12-02T10:28:51.572Z,95.95
2022-12-02T10:29:51.947Z,96.15
2022-12-02T10:30:51.540Z,95.12
2022-12-02T10:31:51.533Z,95.22
2022-12-02T10:32:51.536Z,95.22
2022-12-02T10:33:51.503Z,95.64
2022-12-02T10:34:51.716Z,95.28
2022-12-02T10:35:51.473Z,95.39
2022-12-02T10:36:51.459Z,94.56
2022-12-02T10:37:51.453Z,94.87
2022-12-02T10:38:51.427Z,94.35
2022-12-02T10:39:51.421Z,95.43
2022-12-02T10:40:51.399Z,95.59
2022-12-02T10:41:51.414Z,95.80
2022-12-02T10:42:51.375Z,95.90
2022-12-02T10:43:51.367Z,95.80
2022-12-02T10:44:51.643Z,95.59
2022-12-02T10:45:51.339Z,95.28
2022-12-02T10:46:51.351Z,94.87
2022-12-02T10:47:51.540Z,94.97
2022-12-02T10:48:51.290Z,95.28
2022-12-02T10:49:51.280Z,95.39
2022-12-02T10:50:51.267Z,94.87
2022-12-02T10:51:51.259Z,94.39
2022-12-02T10:52:51.241Z,93.83
2022-12-02T10:53:51.244Z,94.56
2022-12-02T10:54:51.211Z,94.24
2022-12-02T10:55:51.197Z,94.56
2022-12-02T10:56:51.187Z,94.45
2022-12-02T10:57:51.298Z,94.56
2022-12-02T10:58:51.235Z,93.77
2022-12-02T10:59:51.149Z,94.35
2022-12-02T11:00:51.171Z,95.74
2022-12-02T11:01:51.207Z,95.53
2022-12-02T11:02:51.113Z,95.84
2022-12-02T11:03:51.106Z,95.32
2022-12-02T11:04:51.295Z,96.05
2022-12-02T11:05:51.066Z,95.90
2022-12-02T11:06:51.047Z,95.95
2022-12-02T11:07:51.100Z,95.43
2022-12-02T11:08:51.030Z,94.70
2022-12-02T11:09:51.019Z,95.64
2022-12-02T11:10:51.002Z,94.29
2022-12-02T11:11:50.985Z,94.39
2022-12-02T11:12:50.975Z,94.39
2022-12-02T11:13:50.984Z,94.39
2022-12-02T11:14:51.295Z,94.66
2022-12-02T11:15:51.144Z,95.22
2022-12-02T11:16:54.303Z,95.12
2022-12-02T11:17:50.909Z,95.32
2022-12-02T11:18:50.897Z,94.60
2022-12-02T11:19:50.878Z,94.29
2022-12-02T11:20:50.866Z,94.45
2022-12-02T11:21:51.737Z,94.81
2022-12-02T11:22:51.067Z,94.18
2022-12-02T11:23:50.831Z,94.39
2022-12-02T11:24:51.074Z,94.70
2022-12-02T11:25:50.805Z,94.70
2022-12-02T11:26:50.792Z,94.81
2022-12-02T11:27:50.779Z,94.29
2022-12-02T11:28:50.791Z,94.29
2022-12-02T11:29:50.782Z,94.18
2022-12-02T11:30:50.734Z,93.56
2022-12-02T11:31:50.772Z,93.56
2022-12-02T11:32:50.713Z,93.25
2022-12-02T11:33:54.095Z,92.94
2022-12-02T11:35:19.837Z,93.25
2022-12-02T11:35:51.688Z,93.77
2022-12-02T11:36:50.705Z,93.77
2022-12-02T11:37:50.648Z,92.32
2022-12-02T11:38:50.647Z,93.04
2022-12-02T11:39:53.142Z,93.15
2022-12-02T11:40:50.608Z,93.15
2022-12-02T11:41:50.591Z,93.15
2022-12-02T11:42:50.582Z,93.15
2022-12-02T11:43:50.570Z,93.29
2022-12-02T11:44:51.030Z,93.25
2022-12-02T11:45:50.584Z,92.74
2022-12-02T11:46:50.536Z,93.35
2022-12-02T11:47:50.531Z,93.19
2022-12-02T11:48:50.524Z,92.98
2022-12-02T11:49:50.483Z,92.74
2022-12-02T11:50:50.466Z,92.16
2022-12-02T11:51:50.505Z,91.64
2022-12-02T11:52:50.464Z,91.80
2022-12-02T11:53:50.428Z,92.11
2022-12-02T11:54:50.941Z,92.16
2022-12-02T11:55:50.399Z,92.47
2022-12-02T11:56:50.392Z,91.85
2022-12-02T11:57:50.375Z,91.70
2022-12-02T11:58:50.358Z,91.85
2022-12-02T11:59:50.355Z,92.26
2022-12-02T12:00:50.343Z,92.43
2022-12-02T12:01:50.450Z,92.01
2022-12-02T12:02:50.379Z,91.91
2022-12-02T12:03:50.417Z,91.70
2022-12-02T12:04:50.680Z,91.74
2022-12-02T12:05:50.272Z,91.74
2022-12-02T12:06:50.258Z,91.53
2022-12-02T12:07:50.342Z,91.22
2022-12-02T12:08:50.228Z,90.91
2022-12-02T12:09:50.212Z,90.97
2022-12-02T12:10:50.197Z,90.91
2022-12-02T12:11:50.188Z,90.77
2022-12-02T12:12:50.180Z,90.81
2022-12-02T12:13:50.160Z,90.70
2022-12-02T12:14:50.480Z,90.81
2022-12-02T12:15:50.136Z,90.60
2022-12-02T12:16:50.237Z,90.08
2022-12-02T12:17:50.183Z,90.08
2022-12-02T12:18:50.099Z,90.29
2022-12-02T12:19:50.084Z,90.19
2022-12-02T12:20:50.072Z,90.19
2022-12-02T12:21:50.065Z,90.08
2022-12-02T12:22:50.052Z,89.87
2022-12-02T12:23:50.036Z,89.98
2022-12-02T12:24:50.301Z,89.98
2022-12-02T12:25:50.005Z,89.98
2022-12-02T12:26:49.997Z,89.87
2022-12-02T12:27:49.980Z,90.39
2022-12-02T12:28:49.965Z,90.70
2022-12-02T12:29:49.953Z,90.60
2022-12-02T12:30:49.989Z,90.39
2022-12-02T12:31:49.929Z,89.98
2022-12-02T12:32:49.913Z,89.71
2022-12-02T12:33:49.917Z,89.36
2022-12-02T12:34:50.118Z,89.61
2022-12-02T12:35:49.874Z,89.56
2022-12-02T12:36:49.858Z,89.46
2022-12-02T12:37:49.842Z,89.25
2022-12-02T12:38:49.834Z,89.15
2022-12-02T12:39:49.820Z,89.09
2022-12-02T12:40:49.846Z,89.15
2022-12-02T12:42:05.212Z,89.04
2022-12-02T12:42:50.801Z,88.84
2022-12-02T12:43:49.827Z,88.84
2022-12-02T12:44:50.112Z,88.78
2022-12-02T12:45:49.791Z,88.32
2022-12-02T12:46:49.727Z,88.11
2022-12-02T12:47:49.708Z,88.32
2022-12-02T12:48:49.934Z,88.36
2022-12-02T12:49:49.863Z,88.15
2022-12-02T12:50:49.673Z,88.05
2022-12-02T12:51:49.659Z,88.01
2022-12-02T12:52:49.648Z,88.15